createdAt,value
2023-04-26T02:01:26.771Z,3.83
2023-04-26T02:03:53.988Z,3.28
2023-04-26T02:06:21.804Z,2.00
2023-04-26T02:08:49.598Z,3.47
2023-04-26T02:11:16.815Z,2.47
2023-04-26T02:13:43.857Z,2.70
2023-04-26T02:16:11.133Z,5.47
2023-04-26T02:18:38.324Z,3.05
2023-04-26T02:21:09.331Z,3.22
2023-04-26T02:23:36.414Z,3.08
2023-04-26T02:26:04.628Z,2.00
2023-04-26T02:28:31.690Z,2.17
2023-04-26T02:30:58.848Z,2.30
2023-04-26T02:33:26.002Z,2.50
2023-04-26T02:35:53.066Z,2.72
2023-04-26T02:38:20.403Z,2.35
2023-04-26T02:40:47.490Z,2.97
2023-04-26T02:43:14.544Z,2.80
2023-04-26T02:45:43.094Z,3.20
2023-04-26T02:48:10.017Z,2.88
2023-04-26T02:50:37.015Z,2.65
2023-04-26T02:53:04.475Z,2.33
2023-04-26T02:55:31.492Z,2.63
2023-04-26T02:57:58.563Z,2.42
2023-04-26T03:00:26.300Z,2.45
2023-04-26T03:02:53.579Z,2.50
2023-04-26T03:05:20.708Z,2.45
2023-04-26T03:07:47.605Z,3.35
2023-04-26T03:10:14.655Z,2.10
2023-04-26T03:12:41.629Z,2.45
2023-04-26T03:15:08.856Z,1.98
2023-04-26T03:17:35.843Z,2.40
2023-04-26T03:20:04.414Z,2.92
2023-04-26T03:22:31.329Z,1.90
2023-04-26T03:24:58.238Z,1.83
2023-04-26T03:27:25.252Z,2.17
2023-04-26T03:29:52.264Z,2.75
2023-04-26T03:32:19.225Z,1.98
2023-04-26T03:34:48.656Z,2.15
2023-04-26T03:37:15.828Z,3.08
2023-04-26T03:39:42.861Z,3.08
2023-04-26T03:42:09.843Z,3.45
2023-04-26T03:44:36.780Z,2.15
2023-04-26T03:47:05.321Z,3.53
2023-04-26T03:49:32.460Z,2.08
2023-04-26T03:51:59.483Z,1.92
2023-04-26T03:54:29.247Z,2.58
2023-04-26T03:56:56.314Z,1.90
2023-04-26T03:59:23.474Z,2.47
2023-04-26T04:01:50.424Z,2.42
2023-04-26T04:04:17.654Z,1.75
2023-04-26T04:06:44.772Z,2.05
2023-04-26T04:09:11.920Z,2.00
2023-04-26T04:11:38.845Z,1.58
2023-04-26T04:14:05.915Z,2.42
2023-04-26T04:16:32.907Z,2.30
2023-04-26T04:18:59.916Z,1.60
2023-04-26T04:21:27.718Z,1.52
2023-04-26T04:23:55.064Z,2.30
2023-04-26T04:26:22.183Z,2.90
2023-04-26T04:28:49.143Z,1.50
2023-04-26T04:31:17.837Z,1.15
2023-04-26T04:33:44.856Z,2.25
2023-04-26T04:36:11.850Z,2.05
2023-04-26T04:38:38.927Z,1.70
2023-04-26T04:41:05.957Z,2.10
2023-04-26T04:43:33.076Z,2.17
2023-04-26T04:46:00.206Z,2.42
2023-04-26T04:48:27.164Z,2.03
2023-04-26T04:50:54.057Z,2.70
2023-04-26T04:53:21.155Z,1.90
2023-04-26T04:55:49.257Z,2.33
2023-04-26T04:58:16.287Z,2.08
2023-04-26T05:00:43.510Z,2.00
2023-04-26T05:03:11.151Z,2.30
2023-04-26T05:05:38.210Z,2.30
2023-04-26T05:08:07.999Z,2.25
2023-04-26T05:10:36.016Z,1.80
2023-04-26T05:13:03.192Z,4.40
2023-04-26T05:15:30.233Z,2.22
2023-04-26T05:17:57.825Z,2.75
2023-04-26T05:20:24.994Z,2.05
2023-04-26T05:22:51.953Z,2.63
2023-04-26T05:25:20.264Z,1.73
2023-04-26T05:27:49.245Z,1.88
2023-04-26T05:30:16.651Z,2.75
2023-04-26T05:32:43.723Z,3.40
2023-04-26T05:35:10.598Z,1.70
2023-04-26T05:37:39.344Z,2.42
2023-04-26T05:40:07.992Z,2.33
2023-04-26T05:42:34.953Z,3.25
2023-04-26T05:45:02.008Z,2.28
2023-04-26T05:47:29.202Z,4.35
2023-04-26T05:49:56.142Z,2.17
2023-04-26T05:52:23.082Z,2.17
2023-04-26T05:54:50.011Z,2.45
2023-04-26T05:57:18.085Z,2.22
2023-04-26T05:59:45.341Z,2.25
2023-04-26T06:02:12.281Z,2.15
2023-04-26T06:04:39.498Z,1.90
2023-04-26T06:07:07.276Z,2.40
2023-04-26T06:09:34.501Z,3.80
2023-04-26T06:12:02.319Z,2.55
2023-04-26T06:14:42.856Z,2.88
2023-04-26T06:17:10.156Z,3.53
2023-04-26T06:19:56.981Z,2.63
2023-04-26T06:22:24.032Z,2.55
2023-04-26T06:24:51.274Z,3.28
2023-04-26T06:27:18.418Z,3.33
2023-04-26T06:29:45.760Z,1.98
2023-04-26T06:32:13.967Z,3.35
2023-04-26T06:34:45.726Z,2.45
2023-04-26T06:37:14.200Z,1.77
2023-04-26T06:39:41.550Z,2.10
2023-04-26T06:42:08.569Z,2.20
2023-04-26T06:44:35.658Z,2.20
2023-04-26T06:47:02.813Z,2.40
2023-04-26T06:49:29.944Z,2.00
2023-04-26T06:51:57.677Z,1.42
2023-04-26T06:54:29.291Z,3.33
2023-04-26T06:56:56.477Z,3.05
2023-04-26T06:59:23.565Z,2.15
2023-04-26T07:01:51.253Z,1.92
2023-04-26T07:04:19.242Z,1.98
2023-04-26T07:06:46.813Z,1.60
2023-04-26T07:09:13.816Z,2.03
2023-04-26T07:11:41.227Z,1.73
2023-04-26T07:14:08.179Z,3.42
2023-04-26T07:16:35.211Z,1.85
2023-04-26T07:19:02.155Z,1.88
2023-04-26T07:21:29.198Z,2.10
2023-04-26T07:23:57.252Z,2.63
2023-04-26T07:26:26.734Z,4.38
2023-04-26T07:28:54.524Z,2.67
2023-04-26T07:31:21.560Z,3.85
2023-04-26T07:33:49.101Z,3.15
2023-04-26T07:36:16.077Z,2.13
2023-04-26T07:38:43.028Z,1.90
2023-04-26T07:41:10.114Z,2.33
2023-04-26T07:43:38.271Z,2.95
2023-04-26T07:46:05.540Z,3.08
2023-04-26T07:48:33.141Z,3.17
2023-04-26T07:51:09.114Z,2.53
2023-04-26T07:53:36.050Z,1.75
2023-04-26T07:56:06.894Z,1.80
2023-04-26T07:58:39.099Z,1.95
2023-04-26T08:01:06.445Z,2.17
2023-04-26T08:03:33.872Z,1.77
2023-04-26T08:06:02.148Z,2.20
2023-04-26T08:08:29.518Z,1.70
2023-04-26T08:10:56.634Z,1.83
2023-04-26T08:13:23.716Z,3.13
2023-04-26T08:15:50.837Z,3.35
2023-04-26T08:18:17.924Z,1.90
2023-04-26T08:20:44.937Z,2.00
2023-04-26T08:23:12.702Z,4.40
2023-04-26T08:25:39.675Z,1.55
2023-04-26T08:28:08.690Z,2.60
2023-04-26T08:30:35.913Z,1.73
2023-04-26T08:33:03.673Z,2.13
2023-04-26T08:35:30.843Z,1.77
2023-04-26T08:37:57.843Z,2.10
2023-04-26T08:40:25.575Z,3.25
2023-04-26T08:42:55.677Z,2.20
2023-04-26T08:45:23.409Z,2.63
2023-04-26T08:48:18.575Z,2.60
2023-04-26T08:50:49.322Z,3.25
2023-04-26T08:53:20.030Z,2.00
2023-04-26T08:55:51.027Z,2.78
2023-04-26T08:58:19.087Z,1.83
2023-04-26T09:00:46.675Z,3.15
2023-04-26T09:03:14.201Z,1.80
2023-04-26T09:05:45.743Z,3.10
2023-04-26T09:08:17.586Z,4.00
2023-04-26T09:10:47.720Z,2.70
2023-04-26T09:13:14.908Z,2.53
2023-04-26T09:15:41.975Z,2.65
2023-04-26T09:18:20.588Z,1.70
2023-04-26T09:21:06.930Z,1.90
2023-04-26T09:23:34.540Z,3.33
2023-04-26T09:26:21.643Z,3.30
2023-04-26T09:28:49.125Z,3.78
2023-04-26T09:31:43.217Z,1.70
2023-04-26T09:34:12.213Z,2.72
2023-04-26T09:36:53.383Z,2.45
2023-04-26T09:39:41.719Z,2.35
2023-04-26T09:42:11.851Z,2.60
2023-04-26T09:44:39.387Z,2.00
2023-04-26T09:47:12.063Z,1.77
2023-04-26T09:49:51.533Z,3.08
2023-04-26T09:52:19.890Z,2.88
2023-04-26T09:54:53.250Z,2.95
2023-04-26T09:57:22.399Z,3.78
2023-04-26T09:59:55.622Z,2.45
2023-04-26T10:02:28.094Z,2.42
2023-04-26T10:05:00.018Z,2.20
2023-04-26T10:07:27.922Z,3.15
2023-04-26T10:09:56.017Z,2.50
2023-04-26T10:12:23.132Z,2.83
2023-04-26T10:14:50.826Z,3.15
2023-04-26T10:17:20.216Z,1.58
2023-04-26T10:19:51.466Z,2.10
2023-04-26T10:22:24.107Z,2.40
2023-04-26T10:24:53.392Z,2.83
2023-04-26T10:27:44.013Z,3.13
2023-04-26T10:30:23.460Z,3.53
2023-04-26T10:32:56.204Z,3.47
2023-04-26T10:35:27.507Z,3.20
2023-04-26T10:38:00.831Z,2.05
2023-04-26T10:40:41.037Z,3.60
2023-04-26T10:43:17.204Z,2.33
2023-04-26T10:45:48.620Z,1.67
2023-04-26T10:48:24.154Z,2.85
2023-04-26T10:51:00.372Z,1.88
2023-04-26T10:53:53.956Z,3.50
2023-04-26T10:56:24.467Z,1.60
2023-04-26T11:01:42.077Z,1.63
2023-04-26T11:04:10.982Z,1.33
2023-04-26T11:06:55.658Z,1.45
2023-04-26T11:09:39.890Z,1.35
2023-04-26T11:12:15.193Z,0.95
2023-04-26T11:14:43.272Z,1.10
2023-04-26T11:17:10.606Z,4.13
2023-04-26T11:19:37.662Z,1.90
2023-04-26T11:22:08.314Z,1.13
2023-04-26T11:24:44.856Z,1.33
2023-04-26T11:27:14.866Z,1.70
2023-04-26T11:29:42.647Z,1.55
2023-04-26T11:32:10.931Z,1.20
2023-04-26T11:34:43.096Z,1.55
2023-04-26T11:37:10.039Z,1.30
2023-04-26T11:39:37.765Z,1.20
2023-04-26T11:42:09.388Z,2.08
2023-04-26T11:44:37.886Z,1.92
2023-04-26T11:47:06.621Z,1.88
2023-04-26T11:49:38.245Z,0.98
2023-04-26T11:52:06.570Z,1.73
2023-04-26T11:54:36.082Z,2.20
2023-04-26T11:57:17.630Z,1.20
2023-04-26T11:59:45.227Z,1.95
2023-04-26T12:02:12.540Z,1.10
2023-04-26T12:04:41.775Z,1.42
2023-04-26T12:07:09.672Z,1.08
2023-04-26T12:09:41.388Z,1.45
2023-04-26T12:12:08.788Z,1.30
2023-04-26T12:14:37.983Z,1.15
2023-04-26T12:17:07.707Z,0.85
2023-04-26T12:19:35.220Z,1.55
2023-04-26T12:22:02.578Z,1.02
2023-04-26T12:24:34.643Z,1.15
2023-04-26T12:27:04.399Z,1.65
2023-04-26T12:29:32.184Z,0.95
2023-04-26T12:32:00.053Z,1.00
2023-04-26T12:34:30.410Z,1.17
2023-04-26T12:36:58.656Z,1.33
2023-04-26T12:39:26.014Z,1.30
2023-04-26T12:41:53.510Z,1.20
2023-04-26T12:44:22.488Z,1.33
2023-04-26T12:46:50.069Z,1.98
2023-04-26T12:49:17.281Z,1.10
2023-04-26T12:51:44.545Z,1.60
2023-04-26T12:54:11.623Z,2.00
2023-04-26T12:56:43.878Z,1.60
2023-04-26T12:59:11.130Z,1.88
2023-04-26T13:01:38.258Z,1.98
2023-04-26T13:04:06.165Z,1.27
2023-04-26T13:06:33.974Z,1.65
2023-04-26T13:09:01.602Z,1.30
2023-04-26T13:11:28.775Z,1.50
2023-04-26T13:13:55.707Z,1.65
2023-04-26T13:16:22.921Z,1.10
2023-04-26T13:18:49.964Z,1.40
2023-04-26T13:21:17.226Z,2.58
2023-04-26T13:23:44.171Z,1.85
2023-04-26T13:26:11.254Z,1.48
2023-04-26T13:28:38.264Z,1.40
2023-04-26T13:31:05.378Z,0.93
2023-04-26T13:33:32.716Z,1.40
2023-04-26T13:35:59.691Z,1.55
2023-04-26T13:38:27.073Z,1.60
2023-04-26T13:40:54.440Z,1.20
2023-04-26T13:43:21.590Z,1.90
2023-04-26T13:45:48.669Z,2.10
2023-04-26T13:48:15.943Z,1.20
2023-04-26T13:50:43.127Z,1.65
2023-04-26T13:53:10.172Z,1.73
2023-04-26T13:55:37.285Z,1.40
2023-04-26T13:58:04.341Z,1.67
2023-04-26T14:00:31.293Z,1.65
2023-04-26T14:02:58.469Z,1.17
2023-04-26T14:05:25.923Z,1.40
2023-04-26T14:07:54.992Z,2.40
2023-04-26T14:10:22.363Z,1.60
2023-04-26T14:12:49.406Z,1.52
2023-04-26T14:15:16.421Z,4.32
2023-04-26T14:17:43.378Z,1.20
2023-04-26T14:20:11.212Z,2.13
2023-04-26T14:22:38.357Z,1.65
2023-04-26T14:25:05.961Z,1.70
2023-04-26T14:27:49.163Z,2.17
2023-04-26T14:30:16.900Z,1.73
2023-04-26T14:32:44.008Z,1.90
2023-04-26T14:35:11.354Z,2.85
2023-04-26T14:37:38.370Z,1.75
2023-04-26T14:40:07.988Z,2.17
2023-04-26T14:42:35.025Z,1.70
2023-04-26T14:45:02.015Z,2.67
2023-04-26T14:47:29.548Z,1.98
2023-04-26T14:49:57.319Z,1.38
2023-04-26T14:52:27.533Z,2.13
2023-04-26T14:54:54.589Z,1.80
2023-04-26T14:57:21.579Z,2.35
2023-04-26T14:59:48.574Z,3.00
2023-04-26T15:02:15.835Z,1.70
2023-04-26T15:04:43.477Z,2.25
2023-04-26T15:07:18.042Z,1.90
2023-04-26T15:09:55.667Z,2.15
2023-04-26T15:12:22.619Z,2.20
2023-04-26T15:14:49.619Z,1.77
2023-04-26T15:17:16.655Z,2.67
2023-04-26T15:19:43.646Z,2.17
2023-04-26T15:22:10.750Z,1.85
2023-04-26T15:24:37.888Z,1.77
2023-04-26T15:27:06.280Z,1.65
2023-04-26T15:29:36.094Z,1.35
2023-04-26T15:32:03.628Z,1.63
2023-04-26T15:34:54.392Z,1.60
2023-04-26T15:37:23.045Z,1.55
2023-04-26T15:39:51.501Z,1.88
2023-04-26T15:42:18.882Z,1.50
2023-04-26T15:44:45.837Z,1.60
2023-04-26T15:47:13.891Z,1.40
2023-04-26T15:49:41.716Z,2.42
2023-04-26T15:52:11.825Z,1.30
2023-04-26T15:54:38.929Z,1.60
2023-04-26T15:57:05.965Z,2.47
2023-04-26T15:59:35.948Z,1.83
2023-04-26T16:02:02.963Z,1.63
2023-04-26T16:04:30.078Z,1.48
2023-04-26T16:06:57.254Z,1.67
2023-04-26T16:09:25.934Z,2.05
2023-04-26T16:11:53.528Z,1.95
2023-04-26T16:14:20.427Z,1.50
2023-04-26T16:16:47.362Z,2.08
2023-04-26T16:19:14.594Z,1.80
2023-04-26T16:21:41.760Z,1.70
2023-04-26T16:24:12.402Z,1.90
2023-04-26T16:26:39.458Z,1.40
2023-04-26T16:29:06.436Z,1.77
2023-04-26T16:31:33.765Z,2.00
2023-04-26T16:34:00.858Z,3.53
2023-04-26T16:36:27.872Z,2.42
2023-04-26T16:38:56.744Z,1.52
2023-04-26T16:41:24.624Z,2.63
2023-04-26T16:43:52.999Z,1.48
2023-04-26T16:46:20.167Z,2.33
2023-04-26T16:48:47.390Z,1.80
2023-04-26T16:51:14.663Z,2.22
2023-04-26T16:53:42.448Z,1.83
2023-04-26T16:56:09.576Z,2.45
2023-04-26T16:58:36.922Z,1.83
2023-04-26T17:01:05.815Z,2.22
2023-04-26T17:03:33.007Z,2.35
2023-04-26T17:06:00.200Z,2.83
2023-04-26T17:08:27.496Z,1.67
2023-04-26T17:10:54.637Z,1.50
2023-04-26T17:13:21.971Z,1.50
2023-04-26T17:15:49.235Z,1.58
2023-04-26T17:18:16.281Z,1.27
2023-04-26T17:20:43.399Z,2.53
2023-04-26T17:23:11.750Z,1.77
2023-04-26T17:25:38.945Z,1.55
2023-04-26T17:28:05.915Z,1.63
2023-04-26T17:30:33.271Z,2.40
2023-04-26T17:33:00.437Z,2.63
2023-04-26T17:35:27.657Z,1.65
2023-04-26T17:37:54.779Z,1.65
2023-04-26T17:40:21.802Z,2.97
2023-04-26T17:42:48.777Z,1.60
2023-04-26T17:45:15.919Z,1.80
2023-04-26T17:47:44.901Z,1.77
2023-04-26T17:50:12.386Z,1.77
2023-04-26T17:52:39.365Z,2.55
2023-04-26T17:55:08.354Z,2.65
2023-04-26T17:57:38.236Z,2.05
2023-04-26T18:00:09.181Z,2.65
2023-04-26T18:02:37.549Z,2.65
2023-04-26T18:05:08.472Z,3.08
2023-04-26T18:07:35.623Z,2.28
2023-04-26T18:10:04.093Z,2.00
2023-04-26T18:12:31.938Z,2.17
2023-04-26T18:14:59.304Z,1.70
2023-04-26T18:17:26.387Z,1.95
2023-04-26T18:19:53.382Z,2.78
2023-04-26T18:22:20.514Z,12.63
2023-04-26T18:24:47.540Z,3.25
2023-04-26T18:27:14.528Z,1.90
2023-04-26T18:29:41.686Z,2.75
2023-04-26T18:32:08.631Z,2.45
2023-04-26T18:34:35.627Z,2.45
2023-04-26T18:37:02.880Z,2.20
2023-04-26T18:39:30.470Z,1.85
2023-04-26T18:41:57.608Z,1.98
2023-04-26T18:44:24.620Z,2.58
2023-04-26T18:46:55.672Z,2.40
2023-04-26T18:49:23.888Z,1.75
2023-04-26T18:51:50.762Z,3.38
2023-04-26T18:54:17.837Z,2.90
2023-04-26T18:56:45.066Z,2.08
2023-04-26T18:59:12.647Z,2.60
2023-04-26T19:01:39.634Z,2.40
2023-04-26T19:04:07.961Z,2.63
2023-04-26T19:06:35.815Z,2.08
2023-04-26T19:09:04.532Z,1.95
2023-04-26T19:11:31.604Z,2.65
2023-04-26T19:13:58.541Z,2.10
2023-04-26T19:16:25.551Z,2.75
2023-04-26T19:18:52.968Z,2.92
2023-04-26T19:21:19.907Z,4.38
2023-04-26T19:23:46.928Z,3.10
2023-04-26T19:26:13.848Z,2.58
2023-04-26T19:28:41.414Z,2.63
2023-04-26T19:31:08.421Z,2.85
2023-04-26T19:33:37.078Z,2.10
2023-04-26T19:36:04.291Z,2.30
2023-04-26T19:38:31.354Z,2.50
2023-04-26T19:40:58.402Z,3.28
2023-04-26T19:43:25.681Z,3.08
2023-04-26T19:45:52.687Z,2.22
2023-04-26T19:48:19.626Z,2.63
2023-04-26T19:50:47.347Z,2.55
2023-04-26T19:53:15.511Z,4.40
2023-04-26T19:55:42.991Z,3.28
2023-04-26T19:58:13.039Z,3.85
2023-04-26T20:00:40.638Z,3.13
2023-04-26T20:03:08.081Z,2.70
2023-04-26T20:05:35.332Z,2.90
2023-04-26T20:08:02.637Z,3.28
2023-04-26T20:10:36.440Z,2.83
2023-04-26T20:13:03.623Z,4.30
2023-04-26T20:15:33.023Z,3.65
2023-04-26T20:18:02.325Z,3.00
2023-04-26T20:20:29.426Z,3.78
2023-04-26T20:22:56.560Z,3.28
2023-04-26T20:25:23.639Z,3.53
2023-04-26T20:27:50.505Z,3.47
2023-04-26T20:30:17.509Z,3.50
2023-04-26T20:32:44.543Z,3.15
2023-04-26T20:35:13.825Z,3.45
2023-04-26T20:37:40.836Z,3.42
2023-04-26T20:40:08.527Z,3.60
2023-04-26T20:42:35.600Z,3.15
2023-04-26T20:45:03.049Z,4.10
2023-04-26T20:47:32.310Z,3.58
2023-04-26T20:49:59.364Z,4.45
2023-04-26T20:52:26.800Z,3.90
2023-04-26T20:54:53.809Z,4.47
2023-04-26T20:57:20.821Z,4.82
2023-04-26T20:59:47.743Z,4.95
2023-04-26T21:02:14.934Z,5.47
2023-04-26T21:04:43.070Z,4.05
2023-04-26T21:07:10.675Z,3.33
2023-04-26T21:09:37.981Z,2.70
2023-04-26T21:12:05.311Z,2.70
2023-04-26T21:14:32.264Z,2.70
2023-04-26T21:17:01.115Z,2.50
2023-04-26T21:19:28.145Z,3.38
2023-04-26T21:21:55.121Z,2.92
2023-04-26T21:24:22.125Z,2.65
2023-04-26T21:26:49.118Z,4.50
2023-04-26T21:29:16.458Z,4.57
2023-04-26T21:31:43.544Z,4.25
2023-04-26T21:34:10.614Z,4.55
2023-04-26T21:36:37.731Z,4.63
2023-04-26T21:39:04.682Z,5.40
2023-04-26T21:41:31.900Z,6.95
2023-04-26T21:43:58.920Z,7.15
2023-04-26T21:46:26.365Z,6.15
2023-04-26T21:48:53.329Z,7.13
2023-04-26T21:51:20.454Z,9.02
2023-04-26T21:53:47.373Z,6.90
2023-04-26T21:56:14.948Z,6.70
2023-04-26T21:58:42.180Z,6.50
2023-04-26T22:01:14.333Z,5.90
2023-04-26T22:03:41.591Z,6.15
2023-04-26T22:06:09.706Z,5.72
2023-04-26T22:08:36.896Z,5.60
2023-04-26T22:11:04.122Z,7.40
2023-04-26T22:13:32.374Z,5.88
2023-04-26T22:15:59.822Z,5.72
2023-04-26T22:18:27.245Z,5.57
2023-04-26T22:20:54.252Z,5.68
2023-04-26T22:23:21.434Z,5.60
2023-04-26T22:25:48.424Z,4.82
2023-04-26T22:28:15.989Z,5.35
2023-04-26T22:33:12.519Z,4.60
2023-04-26T22:35:39.721Z,3.92
2023-04-26T22:38:06.704Z,4.70
2023-04-26T22:40:33.870Z,5.07
2023-04-26T22:43:01.100Z,4.78
2023-04-26T22:45:28.148Z,5.15
2023-04-26T22:50:22.094Z,4.80
2023-04-26T22:52:49.877Z,5.18
2023-04-26T22:55:17.458Z,4.40
2023-04-26T22:57:44.526Z,4.60
2023-04-26T23:00:12.636Z,5.50
2023-04-26T23:02:40.324Z,4.68
2023-04-26T23:05:10.032Z,4.82
2023-04-26T23:07:40.482Z,5.30
2023-04-26T23:10:11.289Z,4.60
2023-04-26T23:12:38.409Z,5.15
2023-04-26T23:17:43.086Z,5.45
2023-04-26T23:20:13.280Z,6.03
2023-04-26T23:22:41.501Z,5.00
2023-04-26T23:25:10.035Z,6.35
2023-04-26T23:27:37.395Z,6.13
2023-04-26T23:30:08.759Z,6.47
2023-04-26T23:32:35.806Z,4.90
2023-04-26T23:35:03.163Z,6.75
2023-04-26T23:37:30.194Z,5.28
2023-04-26T23:39:57.311Z,6.25
2023-04-26T23:42:24.322Z,6.07
2023-04-26T23:44:51.354Z,5.93
2023-04-26T23:47:18.279Z,7.88
2023-04-26T23:49:45.205Z,5.78
2023-04-26T23:52:12.281Z,7.50
2023-04-26T23:54:39.325Z,6.15
2023-04-26T23:57:06.448Z,6.97
2023-04-26T23:59:33.376Z,6.72
